HAZ3755 ZGGG-ZHHH
Flight info
| Callsign | HAZ3755 |
|---|---|
| Flight time | 1h 16m |
| Altitude | 29100 |
| Route | MIKIP A461 BUBDA W56 UPMAT |
| Aircraft | A320/M-SDE3FGHIRWY/LB1 |
Departure
| Time | 2026-05-06 05:25 |
|---|---|
| Airport | Guangzhou Baiyun International Airport (ZGGG) |
Arrival
| Time | 2026-05-06 06:41 |
|---|---|
| Airport | Wuhan Tianhe International Airport (ZHHH) |
| Time | Latitude | Longitude | Altitude | Speed | Heading |
|---|---|---|---|---|---|
| 2026-05-06 05:06 | 23.38860 | 113.30250 | 59 ft | 0 kts | 208° |
| 2026-05-06 05:12 | 23.38874 | 113.30258 | 53 ft | 2 kts | 212° |
| 2026-05-06 05:12 | 23.38888 | 113.30266 | 52 ft | 2 kts | 209° |
| 2026-05-06 05:13 | 23.38903 | 113.30275 | 55 ft | 2 kts | 207° |
| 2026-05-06 05:13 | 23.38917 | 113.30283 | 52 ft | 2 kts | 190° |
| 2026-05-06 05:13 | 23.38934 | 113.30283 | 56 ft | 2 kts | 169° |
| 2026-05-06 05:13 | 23.38947 | 113.30273 | 55 ft | 2 kts | 112° |
| 2026-05-06 05:14 | 23.38952 | 113.30260 | 50 ft | 1 kts | 112° |
| 2026-05-06 05:14 | 23.38952 | 113.30259 | 50 ft | 0 kts | 114° |
| 2026-05-06 05:17 | 23.38951 | 113.30262 | 50 ft | 1 kts | 116° |
| 2026-05-06 05:17 | 23.38944 | 113.30278 | 53 ft | 4 kts | 116° |
| 2026-05-06 05:17 | 23.38926 | 113.30316 | 55 ft | 7 kts | 117° |
| 2026-05-06 05:18 | 23.38901 | 113.30370 | 54 ft | 9 kts | 117° |
| 2026-05-06 05:18 | 23.38873 | 113.30437 | 54 ft | 11 kts | 106° |
| 2026-05-06 05:18 | 23.38853 | 113.30523 | 58 ft | 13 kts | 104° |
| 2026-05-06 05:18 | 23.38831 | 113.30620 | 54 ft | 11 kts | 104° |
| 2026-05-06 05:19 | 23.38776 | 113.30659 | 57 ft | 11 kts | 194° |
| 2026-05-06 05:19 | 23.38693 | 113.30636 | 56 ft | 13 kts | 194° |
| 2026-05-06 05:19 | 23.38596 | 113.30610 | 55 ft | 15 kts | 194° |
| 2026-05-06 05:19 | 23.38488 | 113.30581 | 53 ft | 16 kts | 194° |
| 2026-05-06 05:20 | 23.38370 | 113.30549 | 57 ft | 19 kts | 195° |
| 2026-05-06 05:20 | 23.38238 | 113.30513 | 54 ft | 21 kts | 194° |
| 2026-05-06 05:20 | 23.38092 | 113.30474 | 54 ft | 23 kts | 194° |
| 2026-05-06 05:20 | 23.37932 | 113.30431 | 57 ft | 25 kts | 194° |
| 2026-05-06 05:21 | 23.37759 | 113.30383 | 55 ft | 27 kts | 194° |
| 2026-05-06 05:21 | 23.37663 | 113.30358 | 53 ft | 11 kts | 191° |
| 2026-05-06 05:21 | 23.37611 | 113.30406 | 58 ft | 12 kts | 105° |
| 2026-05-06 05:21 | 23.37590 | 113.30500 | 58 ft | 14 kts | 104° |
| 2026-05-06 05:22 | 23.37565 | 113.30609 | 55 ft | 16 kts | 104° |
| 2026-05-06 05:22 | 23.37532 | 113.30708 | 52 ft | 11 kts | 138° |
| 2026-05-06 05:22 | 23.37454 | 113.30704 | 54 ft | 13 kts | 194° |
| 2026-05-06 05:22 | 23.37360 | 113.30678 | 53 ft | 15 kts | 194° |
| 2026-05-06 05:23 | 23.37255 | 113.30650 | 58 ft | 11 kts | 194° |
| 2026-05-06 05:23 | 23.37192 | 113.30685 | 58 ft | 12 kts | 110° |
| 2026-05-06 05:23 | 23.37171 | 113.30785 | 55 ft | 9 kts | 103° |
| 2026-05-06 05:24 | 23.37180 | 113.30828 | 51 ft | 6 kts | 44° |
| 2026-05-06 05:24 | 23.37221 | 113.30841 | 55 ft | 7 kts | 13° |
| 2026-05-06 05:24 | 23.37440 | 113.30900 | 56 ft | 65 kts | 14° |
| 2026-05-06 05:24 | 23.38071 | 113.31074 | 55 ft | 121 kts | 13° |
| 2026-05-06 05:25 | 23.38699 | 113.31240 | 53 ft | 152 kts | 14° |
| 2026-05-06 05:25 | 23.39764 | 113.31533 | 409 ft | 162 kts | 14° |
| 2026-05-06 05:25 | 23.40895 | 113.31823 | 971 ft | 168 kts | 12° |
| 2026-05-06 05:25 | 23.42035 | 113.32111 | 1540 ft | 172 kts | 12° |
| 2026-05-06 05:26 | 23.43217 | 113.32410 | 2158 ft | 173 kts | 13° |
| 2026-05-06 05:26 | 23.44382 | 113.32707 | 2742 ft | 175 kts | 12° |
| 2026-05-06 05:26 | 23.45565 | 113.33009 | 3314 ft | 177 kts | 12° |
| 2026-05-06 05:26 | 23.46813 | 113.33329 | 3686 ft | 192 kts | 11° |
| 2026-05-06 05:27 | 23.48167 | 113.33677 | 4032 ft | 207 kts | 12° |
| 2026-05-06 05:27 | 23.49626 | 113.34050 | 4366 ft | 224 kts | 12° |
| 2026-05-06 05:27 | 23.51214 | 113.34460 | 4709 ft | 244 kts | 12° |
| 2026-05-06 05:27 | 23.52919 | 113.34902 | 5176 ft | 259 kts | 12° |
| 2026-05-06 05:28 | 23.54696 | 113.35362 | 5915 ft | 264 kts | 12° |
| 2026-05-06 05:28 | 23.56501 | 113.35804 | 6703 ft | 267 kts | 6° |
| 2026-05-06 05:28 | 23.58355 | 113.35984 | 7430 ft | 269 kts | 2° |
| 2026-05-06 05:28 | 23.60236 | 113.36136 | 8210 ft | 272 kts | 1° |
| 2026-05-06 05:29 | 23.62137 | 113.36292 | 9002 ft | 275 kts | 1° |
| 2026-05-06 05:29 | 23.64058 | 113.36450 | 9749 ft | 279 kts | 1° |
| 2026-05-06 05:29 | 23.66001 | 113.36608 | 10401 ft | 281 kts | 1° |
| 2026-05-06 05:29 | 23.67961 | 113.36767 | 11069 ft | 283 kts | 1° |
| 2026-05-06 05:30 | 23.69934 | 113.36929 | 11721 ft | 285 kts | 1° |
| 2026-05-06 05:30 | 23.71920 | 113.37092 | 12368 ft | 287 kts | 1° |
| 2026-05-06 05:30 | 23.73922 | 113.37259 | 13015 ft | 289 kts | 1° |
| 2026-05-06 05:30 | 23.75939 | 113.37429 | 13665 ft | 292 kts | 0° |
| 2026-05-06 05:31 | 23.77968 | 113.37598 | 14234 ft | 294 kts | 0° |
| 2026-05-06 05:31 | 23.80036 | 113.37776 | 14581 ft | 305 kts | 1° |
| 2026-05-06 05:31 | 23.82214 | 113.37974 | 14781 ft | 322 kts | 1° |
| 2026-05-06 05:31 | 23.84376 | 113.38179 | 14953 ft | 337 kts | 1° |
| 2026-05-06 05:32 | 23.86768 | 113.38409 | 15116 ft | 353 kts | 2° |
| 2026-05-06 05:32 | 23.89266 | 113.38651 | 15242 ft | 368 kts | 2° |
| 2026-05-06 05:32 | 23.91870 | 113.38904 | 15360 ft | 383 kts | 2° |
| 2026-05-06 05:32 | 23.94577 | 113.39164 | 15475 ft | 398 kts | 2° |
| 2026-05-06 05:33 | 23.97376 | 113.39432 | 15700 ft | 408 kts | 2° |
| 2026-05-06 05:33 | 24.00216 | 113.39706 | 16142 ft | 412 kts | 2° |
| 2026-05-06 05:33 | 24.03081 | 113.39981 | 16627 ft | 415 kts | 2° |
| 2026-05-06 05:33 | 24.05966 | 113.40255 | 17134 ft | 418 kts | 2° |
| 2026-05-06 05:34 | 24.08874 | 113.40532 | 17640 ft | 421 kts | 2° |
| 2026-05-06 05:34 | 24.11805 | 113.40812 | 18129 ft | 424 kts | 2° |
| 2026-05-06 05:34 | 24.14756 | 113.41092 | 18543 ft | 427 kts | 2° |
| 2026-05-06 05:34 | 24.17729 | 113.41375 | 18941 ft | 430 kts | 2° |
| 2026-05-06 05:35 | 24.20720 | 113.41632 | 19351 ft | 432 kts | 0° |
| 2026-05-06 05:35 | 24.23724 | 113.41791 | 19750 ft | 434 kts | 359° |
| 2026-05-06 05:35 | 24.26749 | 113.41880 | 20136 ft | 436 kts | 358° |
| 2026-05-06 05:35 | 24.29789 | 113.41936 | 20520 ft | 438 kts | 358° |
| 2026-05-06 05:36 | 24.32841 | 113.41992 | 20893 ft | 440 kts | 358° |
| 2026-05-06 05:36 | 24.35873 | 113.42061 | 21259 ft | 443 kts | 358° |
| 2026-05-06 05:36 | 24.38960 | 113.42138 | 21614 ft | 445 kts | 358° |
| 2026-05-06 05:36 | 24.42064 | 113.42216 | 21955 ft | 447 kts | 358° |
| 2026-05-06 05:37 | 24.45184 | 113.42297 | 22273 ft | 450 kts | 358° |
| 2026-05-06 05:37 | 24.48318 | 113.42382 | 22588 ft | 452 kts | 358° |
| 2026-05-06 05:37 | 24.51468 | 113.42468 | 22900 ft | 454 kts | 359° |
| 2026-05-06 05:37 | 24.54637 | 113.42558 | 23216 ft | 456 kts | 359° |
| 2026-05-06 05:38 | 24.57819 | 113.42652 | 23508 ft | 458 kts | 359° |
| 2026-05-06 05:38 | 24.61007 | 113.42750 | 23820 ft | 459 kts | 359° |
| 2026-05-06 05:38 | 24.64196 | 113.42848 | 24144 ft | 459 kts | 359° |
| 2026-05-06 05:38 | 24.67389 | 113.42944 | 24476 ft | 459 kts | 359° |
| 2026-05-06 05:39 | 24.70575 | 113.43037 | 24808 ft | 458 kts | 359° |
| 2026-05-06 05:39 | 24.73767 | 113.43127 | 25155 ft | 458 kts | 358° |
| 2026-05-06 05:39 | 24.76950 | 113.43214 | 25488 ft | 458 kts | 358° |
| 2026-05-06 05:39 | 24.80135 | 113.43301 | 25830 ft | 458 kts | 358° |
| 2026-05-06 05:40 | 24.83318 | 113.43389 | 26181 ft | 457 kts | 358° |
| 2026-05-06 05:40 | 24.86501 | 113.43477 | 26538 ft | 457 kts | 358° |
| 2026-05-06 05:40 | 24.89681 | 113.43568 | 26896 ft | 457 kts | 358° |
| 2026-05-06 05:40 | 24.92851 | 113.43659 | 27257 ft | 456 kts | 358° |
| 2026-05-06 05:41 | 24.96020 | 113.43751 | 27629 ft | 455 kts | 358° |
| 2026-05-06 05:41 | 24.99188 | 113.43845 | 28004 ft | 455 kts | 358° |
| 2026-05-06 05:41 | 25.02352 | 113.43939 | 28383 ft | 455 kts | 358° |
| 2026-05-06 05:41 | 25.05511 | 113.44032 | 28771 ft | 454 kts | 358° |
| 2026-05-06 05:42 | 25.08682 | 113.44123 | 29015 ft | 458 kts | 358° |
| 2026-05-06 05:42 | 25.11893 | 113.44212 | 29060 ft | 465 kts | 358° |
| 2026-05-06 05:42 | 25.18467 | 113.44382 | 29059 ft | 479 kts | 358° |
| 2026-05-06 05:43 | 25.25142 | 113.44576 | 29055 ft | 480 kts | 358° |
| 2026-05-06 05:43 | 25.31850 | 113.44781 | 29059 ft | 486 kts | 358° |
| 2026-05-06 05:44 | 25.38620 | 113.44978 | 29059 ft | 494 kts | 358° |
| 2026-05-06 05:44 | 25.45501 | 113.45168 | 29054 ft | 495 kts | 358° |
| 2026-05-06 05:45 | 25.52384 | 113.45362 | 29051 ft | 495 kts | 358° |
| 2026-05-06 05:45 | 25.59266 | 113.45559 | 29049 ft | 495 kts | 358° |
| 2026-05-06 05:46 | 25.66153 | 113.45760 | 29046 ft | 495 kts | 358° |
| 2026-05-06 05:46 | 25.73041 | 113.45956 | 29040 ft | 495 kts | 358° |
| 2026-05-06 05:47 | 25.79932 | 113.46161 | 29043 ft | 495 kts | 359° |
| 2026-05-06 05:47 | 25.86816 | 113.46360 | 29038 ft | 495 kts | 358° |
| 2026-05-06 05:48 | 25.93694 | 113.46278 | 29033 ft | 494 kts | 355° |
| 2026-05-06 05:48 | 26.00549 | 113.45914 | 29026 ft | 493 kts | 354° |
| 2026-05-06 05:49 | 26.07405 | 113.45548 | 29023 ft | 494 kts | 354° |
| 2026-05-06 05:49 | 26.14279 | 113.45275 | 29017 ft | 494 kts | 355° |
| 2026-05-06 05:50 | 26.21148 | 113.45043 | 29011 ft | 494 kts | 355° |
| 2026-05-06 05:50 | 26.28020 | 113.44803 | 29004 ft | 494 kts | 355° |
| 2026-05-06 05:51 | 26.34889 | 113.44541 | 29004 ft | 494 kts | 355° |
| 2026-05-06 05:51 | 26.41763 | 113.44256 | 28995 ft | 494 kts | 355° |
| 2026-05-06 05:52 | 26.48635 | 113.43981 | 28995 ft | 494 kts | 355° |
| 2026-05-06 05:52 | 26.55510 | 113.43721 | 28989 ft | 495 kts | 355° |
| 2026-05-06 05:53 | 26.62390 | 113.43461 | 28983 ft | 495 kts | 355° |
| 2026-05-06 05:53 | 26.69234 | 113.43203 | 28988 ft | 495 kts | 355° |
| 2026-05-06 05:54 | 26.76119 | 113.42939 | 29000 ft | 495 kts | 355° |
| 2026-05-06 05:54 | 26.83000 | 113.42674 | 28985 ft | 495 kts | 355° |
| 2026-05-06 05:55 | 26.89890 | 113.42406 | 28984 ft | 495 kts | 355° |
| 2026-05-06 05:55 | 26.96788 | 113.42138 | 28988 ft | 496 kts | 355° |
| 2026-05-06 05:56 | 27.03676 | 113.41877 | 28986 ft | 496 kts | 355° |
| 2026-05-06 05:56 | 27.10572 | 113.41614 | 28987 ft | 496 kts | 355° |
| 2026-05-06 05:57 | 27.17469 | 113.41348 | 28993 ft | 496 kts | 355° |
| 2026-05-06 05:57 | 27.24366 | 113.41077 | 28988 ft | 496 kts | 355° |
| 2026-05-06 05:58 | 27.31262 | 113.40804 | 29001 ft | 496 kts | 355° |
| 2026-05-06 05:58 | 27.38175 | 113.40687 | 29006 ft | 497 kts | 358° |
| 2026-05-06 05:59 | 27.45102 | 113.40894 | 29009 ft | 498 kts | 359° |
| 2026-05-06 05:59 | 27.52025 | 113.41143 | 29005 ft | 498 kts | 358° |
| 2026-05-06 06:00 | 27.58958 | 113.41299 | 29007 ft | 498 kts | 358° |
| 2026-05-06 06:00 | 27.65879 | 113.41412 | 29003 ft | 497 kts | 358° |
| 2026-05-06 06:01 | 27.72803 | 113.41843 | 28992 ft | 499 kts | 1° |
| 2026-05-06 06:01 | 27.79719 | 113.42579 | 28990 ft | 500 kts | 2° |
| 2026-05-06 06:02 | 27.86586 | 113.43302 | 28986 ft | 500 kts | 2° |
| 2026-05-06 06:02 | 27.93529 | 113.43926 | 28991 ft | 500 kts | 1° |
| 2026-05-06 06:03 | 28.00467 | 113.44495 | 29004 ft | 500 kts | 1° |
| 2026-05-06 06:03 | 28.07404 | 113.45082 | 29004 ft | 500 kts | 1° |
| 2026-05-06 06:04 | 28.14345 | 113.45656 | 29006 ft | 500 kts | 0° |
| 2026-05-06 06:04 | 28.21292 | 113.46141 | 28997 ft | 500 kts | 360° |
| 2026-05-06 06:05 | 28.28241 | 113.46606 | 29002 ft | 500 kts | 0° |
| 2026-05-06 06:05 | 28.35189 | 113.47097 | 29005 ft | 500 kts | 0° |
| 2026-05-06 06:06 | 28.42142 | 113.47605 | 29006 ft | 501 kts | 0° |
| 2026-05-06 06:06 | 28.49049 | 113.48103 | 29007 ft | 501 kts | 0° |
| 2026-05-06 06:07 | 28.56003 | 113.48601 | 29004 ft | 501 kts | 0° |
| 2026-05-06 06:07 | 28.62967 | 113.49107 | 29006 ft | 501 kts | 0° |
| 2026-05-06 06:08 | 28.69923 | 113.49605 | 29000 ft | 501 kts | 0° |
| 2026-05-06 06:08 | 28.76888 | 113.50097 | 29000 ft | 502 kts | 0° |
| 2026-05-06 06:09 | 28.83863 | 113.50593 | 28994 ft | 502 kts | 0° |
| 2026-05-06 06:09 | 28.90839 | 113.51094 | 28997 ft | 502 kts | 0° |
| 2026-05-06 06:10 | 28.97729 | 113.51596 | 28979 ft | 483 kts | 0° |
| 2026-05-06 06:10 | 29.01082 | 113.51841 | 28733 ft | 483 kts | 0° |
| 2026-05-06 06:10 | 29.04434 | 113.52083 | 28359 ft | 483 kts | 0° |
| 2026-05-06 06:11 | 29.06663 | 113.52242 | 28102 ft | 484 kts | 0° |
| 2026-05-06 06:11 | 29.11168 | 113.52565 | 27600 ft | 486 kts | 0° |
| 2026-05-06 06:11 | 29.13410 | 113.52727 | 27351 ft | 488 kts | 0° |
| 2026-05-06 06:11 | 29.16796 | 113.52971 | 26981 ft | 489 kts | 0° |
| 2026-05-06 06:12 | 29.20197 | 113.53215 | 26617 ft | 491 kts | 0° |
| 2026-05-06 06:12 | 29.24769 | 113.53543 | 26136 ft | 493 kts | 0° |
| 2026-05-06 06:12 | 29.27038 | 113.53705 | 25901 ft | 494 kts | 0° |
| 2026-05-06 06:12 | 29.31590 | 113.54047 | 25435 ft | 496 kts | 1° |
| 2026-05-06 06:13 | 29.33919 | 113.54241 | 25205 ft | 498 kts | 1° |
| 2026-05-06 06:13 | 29.37384 | 113.54543 | 24858 ft | 500 kts | 1° |
| 2026-05-06 06:13 | 29.40856 | 113.54857 | 24523 ft | 502 kts | 1° |
| 2026-05-06 06:13 | 29.44302 | 113.55174 | 24184 ft | 489 kts | 1° |
| 2026-05-06 06:14 | 29.48766 | 113.55583 | 23817 ft | 486 kts | 1° |
| 2026-05-06 06:14 | 29.51042 | 113.55786 | 23640 ft | 485 kts | 1° |
| 2026-05-06 06:14 | 29.54412 | 113.56079 | 23377 ft | 484 kts | 1° |
| 2026-05-06 06:14 | 29.57765 | 113.56363 | 23090 ft | 482 kts | 1° |
| 2026-05-06 06:15 | 29.61102 | 113.56646 | 22803 ft | 480 kts | 1° |
| 2026-05-06 06:15 | 29.64421 | 113.56929 | 22527 ft | 477 kts | 1° |
| 2026-05-06 06:15 | 29.67719 | 113.57212 | 22248 ft | 475 kts | 1° |
| 2026-05-06 06:15 | 29.70966 | 113.57494 | 21976 ft | 473 kts | 1° |
| 2026-05-06 06:16 | 29.74234 | 113.57782 | 21693 ft | 470 kts | 1° |
| 2026-05-06 06:16 | 29.77487 | 113.58068 | 21424 ft | 468 kts | 1° |
| 2026-05-06 06:16 | 29.80727 | 113.58351 | 21156 ft | 466 kts | 1° |
| 2026-05-06 06:16 | 29.83947 | 113.58632 | 20890 ft | 463 kts | 1° |
| 2026-05-06 06:17 | 29.87156 | 113.58912 | 20620 ft | 461 kts | 1° |
| 2026-05-06 06:17 | 29.90342 | 113.59326 | 20357 ft | 462 kts | 8° |
| 2026-05-06 06:17 | 29.93444 | 113.60291 | 20096 ft | 463 kts | 18° |
| 2026-05-06 06:17 | 29.96379 | 113.61817 | 19845 ft | 463 kts | 27° |
| 2026-05-06 06:18 | 29.99070 | 113.63853 | 19585 ft | 463 kts | 37° |
| 2026-05-06 06:18 | 30.01564 | 113.66197 | 19324 ft | 460 kts | 38° |
| 2026-05-06 06:18 | 30.04008 | 113.68503 | 19076 ft | 447 kts | 38° |
| 2026-05-06 06:18 | 30.06387 | 113.70742 | 18830 ft | 436 kts | 38° |
| 2026-05-06 06:19 | 30.08707 | 113.72928 | 18584 ft | 426 kts | 38° |
| 2026-05-06 06:19 | 30.10974 | 113.75066 | 18339 ft | 415 kts | 38° |
| 2026-05-06 06:19 | 30.13181 | 113.77148 | 18090 ft | 405 kts | 38° |
| 2026-05-06 06:19 | 30.15339 | 113.79183 | 17811 ft | 397 kts | 38° |
| 2026-05-06 06:20 | 30.17475 | 113.81198 | 17533 ft | 395 kts | 38° |
| 2026-05-06 06:20 | 30.19598 | 113.83200 | 17260 ft | 393 kts | 38° |
| 2026-05-06 06:20 | 30.21712 | 113.85197 | 16980 ft | 391 kts | 38° |
| 2026-05-06 06:20 | 30.23814 | 113.87187 | 16709 ft | 389 kts | 38° |
| 2026-05-06 06:21 | 30.25906 | 113.89169 | 16437 ft | 387 kts | 38° |
| 2026-05-06 06:21 | 30.27981 | 113.91135 | 16168 ft | 385 kts | 38° |
| 2026-05-06 06:21 | 30.30048 | 113.93095 | 15902 ft | 383 kts | 38° |
| 2026-05-06 06:21 | 30.32102 | 113.95043 | 15638 ft | 381 kts | 38° |
| 2026-05-06 06:22 | 30.34147 | 113.96985 | 15377 ft | 379 kts | 38° |
| 2026-05-06 06:22 | 30.36180 | 113.98915 | 15119 ft | 377 kts | 38° |
| 2026-05-06 06:22 | 30.38201 | 114.00835 | 14866 ft | 375 kts | 38° |
| 2026-05-06 06:22 | 30.40210 | 114.02744 | 14610 ft | 372 kts | 38° |
| 2026-05-06 06:23 | 30.42207 | 114.04639 | 14360 ft | 371 kts | 38° |
| 2026-05-06 06:23 | 30.44196 | 114.06528 | 14094 ft | 368 kts | 38° |
| 2026-05-06 06:23 | 30.46169 | 114.08405 | 13858 ft | 366 kts | 39° |
| 2026-05-06 06:23 | 30.48134 | 114.10279 | 13601 ft | 365 kts | 39° |
| 2026-05-06 06:24 | 30.50087 | 114.12144 | 13319 ft | 363 kts | 39° |
| 2026-05-06 06:24 | 30.52035 | 114.14004 | 13042 ft | 362 kts | 39° |
| 2026-05-06 06:24 | 30.53956 | 114.15839 | 12764 ft | 361 kts | 39° |
| 2026-05-06 06:24 | 30.55894 | 114.17688 | 12489 ft | 361 kts | 39° |
| 2026-05-06 06:25 | 30.57827 | 114.19531 | 12212 ft | 359 kts | 39° |
| 2026-05-06 06:25 | 30.59753 | 114.21369 | 11941 ft | 358 kts | 39° |
| 2026-05-06 06:25 | 30.63528 | 114.24977 | 11435 ft | 343 kts | 39° |
| 2026-05-06 06:26 | 30.65349 | 114.26718 | 11194 ft | 336 kts | 39° |
| 2026-05-06 06:26 | 30.67136 | 114.28427 | 10958 ft | 330 kts | 39° |
| 2026-05-06 06:26 | 30.68894 | 114.30109 | 10719 ft | 324 kts | 39° |
| 2026-05-06 06:26 | 30.70617 | 114.31759 | 10482 ft | 319 kts | 39° |
| 2026-05-06 06:27 | 30.72324 | 114.33396 | 10250 ft | 317 kts | 40° |
| 2026-05-06 06:27 | 30.74024 | 114.35028 | 10018 ft | 317 kts | 40° |
| 2026-05-06 06:27 | 30.75721 | 114.36660 | 9790 ft | 316 kts | 40° |
| 2026-05-06 06:27 | 30.77416 | 114.38290 | 9538 ft | 316 kts | 40° |
| 2026-05-06 06:28 | 30.79103 | 114.39910 | 9278 ft | 314 kts | 40° |
| 2026-05-06 06:28 | 30.80788 | 114.41528 | 9028 ft | 313 kts | 40° |
| 2026-05-06 06:28 | 30.82454 | 114.43129 | 8777 ft | 310 kts | 40° |
| 2026-05-06 06:28 | 30.84110 | 114.44726 | 8526 ft | 309 kts | 40° |
| 2026-05-06 06:29 | 30.85761 | 114.46322 | 8275 ft | 308 kts | 40° |
| 2026-05-06 06:29 | 30.87407 | 114.47909 | 8029 ft | 306 kts | 40° |
| 2026-05-06 06:29 | 30.89033 | 114.49475 | 7800 ft | 301 kts | 40° |
| 2026-05-06 06:29 | 30.90628 | 114.51013 | 7608 ft | 295 kts | 40° |
| 2026-05-06 06:30 | 30.92193 | 114.52523 | 7417 ft | 290 kts | 40° |
| 2026-05-06 06:30 | 30.93732 | 114.54010 | 7227 ft | 285 kts | 40° |
| 2026-05-06 06:30 | 30.95238 | 114.55472 | 7036 ft | 280 kts | 41° |
| 2026-05-06 06:30 | 30.96698 | 114.56942 | 6848 ft | 275 kts | 43° |
| 2026-05-06 06:31 | 30.98115 | 114.58405 | 6656 ft | 270 kts | 43° |
| 2026-05-06 06:31 | 30.99590 | 114.59713 | 6469 ft | 264 kts | 25° |
| 2026-05-06 06:31 | 31.01338 | 114.60188 | 6283 ft | 256 kts | 355° |
| 2026-05-06 06:31 | 31.03010 | 114.59710 | 6091 ft | 243 kts | 327° |
| 2026-05-06 06:32 | 31.04280 | 114.58517 | 5888 ft | 230 kts | 306° |
| 2026-05-06 06:32 | 31.05327 | 114.57121 | 5686 ft | 226 kts | 306° |
| 2026-05-06 06:32 | 31.06195 | 114.55645 | 5488 ft | 215 kts | 285° |
| 2026-05-06 06:32 | 31.06416 | 114.53987 | 5290 ft | 203 kts | 259° |
| 2026-05-06 06:33 | 31.06026 | 114.52461 | 5102 ft | 193 kts | 236° |
| 2026-05-06 06:33 | 31.05177 | 114.51296 | 4905 ft | 187 kts | 218° |
| 2026-05-06 06:33 | 31.04190 | 114.50302 | 4716 ft | 187 kts | 218° |
| 2026-05-06 06:33 | 31.03225 | 114.49312 | 4504 ft | 183 kts | 219° |
| 2026-05-06 06:34 | 31.02276 | 114.48333 | 4311 ft | 185 kts | 219° |
| 2026-05-06 06:34 | 31.01320 | 114.47346 | 4110 ft | 181 kts | 219° |
| 2026-05-06 06:34 | 31.00382 | 114.46376 | 3927 ft | 182 kts | 219° |
| 2026-05-06 06:34 | 30.99435 | 114.45400 | 3727 ft | 181 kts | 219° |
| 2026-05-06 06:35 | 30.98492 | 114.44430 | 3532 ft | 180 kts | 219° |
| 2026-05-06 06:35 | 30.97551 | 114.43460 | 3337 ft | 181 kts | 219° |
| 2026-05-06 06:35 | 30.96599 | 114.42480 | 3145 ft | 183 kts | 219° |
| 2026-05-06 06:35 | 30.95641 | 114.41494 | 2957 ft | 185 kts | 218° |
| 2026-05-06 06:36 | 30.94678 | 114.40505 | 2802 ft | 184 kts | 219° |
| 2026-05-06 06:36 | 30.93720 | 114.39521 | 2746 ft | 183 kts | 219° |
| 2026-05-06 06:36 | 30.92771 | 114.38546 | 2752 ft | 181 kts | 220° |
| 2026-05-06 06:36 | 30.91833 | 114.37576 | 2753 ft | 180 kts | 219° |
| 2026-05-06 06:37 | 30.90921 | 114.36631 | 2774 ft | 169 kts | 218° |
| 2026-05-06 06:37 | 30.90057 | 114.35740 | 2764 ft | 164 kts | 218° |
| 2026-05-06 06:37 | 30.89214 | 114.34872 | 2741 ft | 159 kts | 218° |
| 2026-05-06 06:37 | 30.88385 | 114.34022 | 2627 ft | 159 kts | 219° |
| 2026-05-06 06:38 | 30.87556 | 114.33171 | 2449 ft | 159 kts | 219° |
| 2026-05-06 06:38 | 30.86734 | 114.32326 | 2270 ft | 156 kts | 219° |
| 2026-05-06 06:38 | 30.85920 | 114.31490 | 2077 ft | 155 kts | 219° |
| 2026-05-06 06:38 | 30.85131 | 114.30680 | 1884 ft | 144 kts | 219° |
| 2026-05-06 06:39 | 30.84407 | 114.29936 | 1705 ft | 138 kts | 220° |
| 2026-05-06 06:39 | 30.83689 | 114.29201 | 1529 ft | 137 kts | 220° |
| 2026-05-06 06:39 | 30.82973 | 114.28467 | 1346 ft | 137 kts | 219° |
| 2026-05-06 06:39 | 30.82262 | 114.27738 | 1173 ft | 136 kts | 217° |
| 2026-05-06 06:40 | 30.81553 | 114.27011 | 1001 ft | 136 kts | 219° |
| 2026-05-06 06:40 | 30.80835 | 114.26273 | 801 ft | 140 kts | 218° |
| 2026-05-06 06:40 | 30.80119 | 114.25530 | 622 ft | 138 kts | 220° |
| 2026-05-06 06:40 | 30.79397 | 114.24789 | 473 ft | 139 kts | 219° |
| 2026-05-06 06:41 | 30.78683 | 114.24062 | 277 ft | 138 kts | 220° |
| 2026-05-06 06:41 | 30.77965 | 114.23325 | 117 ft | 136 kts | 221° |
| 2026-05-06 06:41 | 30.77385 | 114.22734 | 109 ft | 74 kts | 221° |
| 2026-05-06 06:41 | 30.77126 | 114.22469 | 107 ft | 38 kts | 221° |
| 2026-05-06 06:42 | 30.77002 | 114.22251 | 109 ft | 30 kts | 250° |
| 2026-05-06 06:42 | 30.76983 | 114.22138 | 107 ft | 13 kts | 297° |
| 2026-05-06 06:42 | 30.77028 | 114.22078 | 106 ft | 9 kts | 312° |
| 2026-05-06 06:42 | 30.77079 | 114.22034 | 107 ft | 7 kts | 15° |
| 2026-05-06 06:43 | 30.77129 | 114.22073 | 108 ft | 8 kts | 41° |
| 2026-05-06 06:43 | 30.77180 | 114.22117 | 108 ft | 10 kts | 17° |
| 2026-05-06 06:43 | 30.77227 | 114.22066 | 108 ft | 11 kts | 282° |
| 2026-05-06 06:43 | 30.77237 | 114.22006 | 108 ft | 4 kts | 282° |
| 2026-05-06 06:44 | 30.77239 | 114.21997 | 108 ft | 0 kts | 282° |